sensor_id;sensor_type;location;lat;lon;timestamp;P1;durP1;ratioP1;P2;durP2;ratioP2
66371;SDS011;53168;51.146;17.120;2023-12-14T00:02:11;61.54;;;54.72;;
66371;SDS011;53168;51.146;17.120;2023-12-14T00:04:46;61.35;;;54.49;;
66371;SDS011;53168;51.146;17.120;2023-12-14T00:07:20;60.54;;;54.22;;
66371;SDS011;53168;51.146;17.120;2023-12-14T00:09:54;61.24;;;54.68;;
66371;SDS011;53168;51.146;17.120;2023-12-14T00:12:28;63.78;;;55.50;;
66371;SDS011;53168;51.146;17.120;2023-12-14T00:15:02;63.29;;;55.15;;
66371;SDS011;53168;51.146;17.120;2023-12-14T00:17:38;60.67;;;53.02;;
66371;SDS011;53168;51.146;17.120;2023-12-14T00:20:11;63.77;;;54.70;;
66371;SDS011;53168;51.146;17.120;2023-12-14T00:22:46;59.45;;;52.15;;
66371;SDS011;53168;51.146;17.120;2023-12-14T00:25:20;59.43;;;52.60;;
66371;SDS011;53168;51.146;17.120;2023-12-14T00:27:54;60.29;;;52.82;;
66371;SDS011;53168;51.146;17.120;2023-12-14T00:30:28;61.11;;;53.56;;
66371;SDS011;53168;51.146;17.120;2023-12-14T00:33:01;65.54;;;55.29;;
66371;SDS011;53168;51.146;17.120;2023-12-14T00:35:36;59.66;;;52.01;;
66371;SDS011;53168;51.146;17.120;2023-12-14T00:38:09;62.55;;;53.48;;
66371;SDS011;53168;51.146;17.120;2023-12-14T00:40:43;62.50;;;53.40;;
66371;SDS011;53168;51.146;17.120;2023-12-14T00:43:17;62.69;;;53.24;;
66371;SDS011;53168;51.146;17.120;2023-12-14T00:45:51;64.36;;;54.68;;
66371;SDS011;53168;51.146;17.120;2023-12-14T00:48:25;61.17;;;53.04;;
66371;SDS011;53168;51.146;17.120;2023-12-14T00:50:59;69.30;;;57.93;;
66371;SDS011;53168;51.146;17.120;2023-12-14T00:53:34;64.91;;;55.06;;
66371;SDS011;53168;51.146;17.120;2023-12-14T00:56:09;63.37;;;54.68;;
66371;SDS011;53168;51.146;17.120;2023-12-14T00:58:42;64.93;;;54.98;;
66371;SDS011;53168;51.146;17.120;2023-12-14T01:01:16;68.37;;;57.88;;
66371;SDS011;53168;51.146;17.120;2023-12-14T01:03:51;65.87;;;55.67;;
66371;SDS011;53168;51.146;17.120;2023-12-14T01:06:25;65.51;;;54.65;;
66371;SDS011;53168;51.146;17.120;2023-12-14T01:08:59;64.25;;;54.40;;
66371;SDS011;53168;51.146;17.120;2023-12-14T01:11:35;62.50;;;54.04;;
66371;SDS011;53168;51.146;17.120;2023-12-14T01:14:09;64.33;;;55.26;;
66371;SDS011;53168;51.146;17.120;2023-12-14T01:16:43;63.70;;;54.28;;
66371;SDS011;53168;51.146;17.120;2023-12-14T01:19:17;65.14;;;54.60;;
66371;SDS011;53168;51.146;17.120;2023-12-14T01:21:51;63.94;;;53.72;;
66371;SDS011;53168;51.146;17.120;2023-12-14T01:24:25;65.30;;;55.40;;
66371;SDS011;53168;51.146;17.120;2023-12-14T01:26:59;59.63;;;50.97;;
66371;SDS011;53168;51.146;17.120;2023-12-14T01:29:33;61.99;;;53.28;;
66371;SDS011;53168;51.146;17.120;2023-12-14T01:32:07;62.98;;;53.55;;
66371;SDS011;53168;51.146;17.120;2023-12-14T01:34:41;63.73;;;53.55;;
66371;SDS011;53168;51.146;17.120;2023-12-14T01:37:14;64.68;;;54.46;;
66371;SDS011;53168;51.146;17.120;2023-12-14T01:39:48;63.44;;;53.57;;
66371;SDS011;53168;51.146;17.120;2023-12-14T03:41:53;52.19;;;41.55;;
66371;SDS011;53168;51.146;17.120;2023-12-14T03:44:23;48.73;;;40.27;;
66371;SDS011;53168;51.146;17.120;2023-12-14T03:46:52;50.38;;;41.05;;
66371;SDS011;53168;51.146;17.120;2023-12-14T03:49:23;50.99;;;41.11;;
66371;SDS011;53168;51.146;17.120;2023-12-14T03:51:52;47.61;;;39.24;;
66371;SDS011;53168;51.146;17.120;2023-12-14T03:54:22;45.78;;;38.09;;
66371;SDS011;53168;51.146;17.120;2023-12-14T03:56:51;45.90;;;38.13;;
66371;SDS011;53168;51.146;17.120;2023-12-14T03:59:21;48.43;;;39.29;;
66371;SDS011;53168;51.146;17.120;2023-12-14T04:01:50;45.09;;;37.55;;
66371;SDS011;53168;51.146;17.120;2023-12-14T04:04:19;46.26;;;37.93;;
66371;SDS011;53168;51.146;17.120;2023-12-14T04:06:49;46.80;;;38.29;;
66371;SDS011;53168;51.146;17.120;2023-12-14T04:09:18;41.08;;;35.05;;
66371;SDS011;53168;51.146;17.120;2023-12-14T04:11:48;44.68;;;37.16;;
66371;SDS011;53168;51.146;17.120;2023-12-14T04:14:17;43.37;;;36.39;;
66371;SDS011;53168;51.146;17.120;2023-12-14T04:16:47;42.65;;;35.72;;
66371;SDS011;53168;51.146;17.120;2023-12-14T04:19:16;42.63;;;35.93;;
66371;SDS011;53168;51.146;17.120;2023-12-14T04:21:46;40.72;;;35.05;;
66371;SDS011;53168;51.146;17.120;2023-12-14T04:24:16;44.07;;;36.60;;
66371;SDS011;53168;51.146;17.120;2023-12-14T04:26:45;40.41;;;34.08;;
66371;SDS011;53168;51.146;17.120;2023-12-14T04:29:15;42.05;;;35.64;;
66371;SDS011;53168;51.146;17.120;2023-12-14T04:31:44;43.04;;;36.42;;
66371;SDS011;53168;51.146;17.120;2023-12-14T04:34:14;45.06;;;37.42;;
66371;SDS011;53168;51.146;17.120;2023-12-14T04:36:46;45.65;;;38.12;;
66371;SDS011;53168;51.146;17.120;2023-12-14T04:39:16;44.02;;;37.26;;
66371;SDS011;53168;51.146;17.120;2023-12-14T04:41:45;43.88;;;37.44;;
66371;SDS011;53168;51.146;17.120;2023-12-14T04:44:15;43.07;;;36.42;;
66371;SDS011;53168;51.146;17.120;2023-12-14T04:46:45;40.73;;;34.86;;
66371;SDS011;53168;51.146;17.120;2023-12-14T04:49:14;43.11;;;36.11;;
66371;SDS011;53168;51.146;17.120;2023-12-14T04:51:46;40.88;;;35.05;;
66371;SDS011;53168;51.146;17.120;2023-12-14T04:54:16;42.14;;;35.62;;
66371;SDS011;53168;51.146;17.120;2023-12-14T04:56:46;40.63;;;34.64;;
66371;SDS011;53168;51.146;17.120;2023-12-14T04:59:15;41.60;;;35.44;;
66371;SDS011;53168;51.146;17.120;2023-12-14T05:01:45;43.80;;;37.48;;
66371;SDS011;53168;51.146;17.120;2023-12-14T05:04:15;42.15;;;36.00;;
66371;SDS011;53168;51.146;17.120;2023-12-14T05:06:44;42.08;;;36.35;;
66371;SDS011;53168;51.146;17.120;2023-12-14T05:09:14;42.67;;;35.98;;
66371;SDS011;53168;51.146;17.120;2023-12-14T05:11:44;41.41;;;35.13;;
66371;SDS011;53168;51.146;17.120;2023-12-14T05:14:14;44.19;;;36.76;;
66371;SDS011;53168;51.146;17.120;2023-12-14T05:16:44;43.61;;;36.45;;
66371;SDS011;53168;51.146;17.120;2023-12-14T05:19:13;41.24;;;35.29;;
66371;SDS011;53168;51.146;17.120;2023-12-14T05:21:43;41.89;;;35.64;;
66371;SDS011;53168;51.146;17.120;2023-12-14T05:24:12;40.55;;;35.00;;
66371;SDS011;53168;51.146;17.120;2023-12-14T05:26:42;43.13;;;36.56;;
66371;SDS011;53168;51.146;17.120;2023-12-14T05:29:12;43.03;;;36.36;;
66371;SDS011;53168;51.146;17.120;2023-12-14T05:31:41;42.96;;;36.17;;
66371;SDS011;53168;51.146;17.120;2023-12-14T05:34:11;44.25;;;36.89;;
66371;SDS011;53168;51.146;17.120;2023-12-14T05:36:41;44.29;;;36.83;;
66371;SDS011;53168;51.146;17.120;2023-12-14T05:39:10;42.12;;;35.36;;
66371;SDS011;53168;51.146;17.120;2023-12-14T05:41:41;41.82;;;35.84;;
66371;SDS011;53168;51.146;17.120;2023-12-14T05:44:10;43.02;;;36.30;;
66371;SDS011;53168;51.146;17.120;2023-12-14T05:46:40;42.29;;;35.97;;
66371;SDS011;53168;51.146;17.120;2023-12-14T05:49:10;42.17;;;36.17;;
66371;SDS011;53168;51.146;17.120;2023-12-14T05:51:39;39.53;;;34.15;;
66371;SDS011;53168;51.146;17.120;2023-12-14T05:54:08;39.81;;;33.97;;
66371;SDS011;53168;51.146;17.120;2023-12-14T05:56:38;39.57;;;33.86;;
66371;SDS011;53168;51.146;17.120;2023-12-14T05:59:08;39.06;;;33.71;;
66371;SDS011;53168;51.146;17.120;2023-12-14T06:01:37;39.87;;;34.27;;
66371;SDS011;53168;51.146;17.120;2023-12-14T06:04:07;38.48;;;33.65;;
66371;SDS011;53168;51.146;17.120;2023-12-14T06:06:38;42.30;;;35.46;;
66371;SDS011;53168;51.146;17.120;2023-12-14T06:09:08;43.27;;;36.16;;
66371;SDS011;53168;51.146;17.120;2023-12-14T06:11:38;40.01;;;33.97;;
66371;SDS011;53168;51.146;17.120;2023-12-14T06:14:08;38.13;;;32.89;;
66371;SDS011;53168;51.146;17.120;2023-12-14T06:16:38;38.40;;;32.75;;
66371;SDS011;53168;51.146;17.120;2023-12-14T06:19:07;40.07;;;33.82;;
66371;SDS011;53168;51.146;17.120;2023-12-14T06:21:37;39.81;;;33.64;;
66371;SDS011;53168;51.146;17.120;2023-12-14T06:24:07;39.87;;;34.11;;
66371;SDS011;53168;51.146;17.120;2023-12-14T06:26:40;41.05;;;34.95;;
66371;SDS011;53168;51.146;17.120;2023-12-14T06:29:10;37.80;;;32.39;;
66371;SDS011;53168;51.146;17.120;2023-12-14T06:31:41;36.58;;;31.61;;
66371;SDS011;53168;51.146;17.120;2023-12-14T06:34:12;35.18;;;30.68;;
66371;SDS011;53168;51.146;17.120;2023-12-14T06:36:43;35.17;;;30.51;;
66371;SDS011;53168;51.146;17.120;2023-12-14T06:39:14;34.47;;;30.51;;
66371;SDS011;53168;51.146;17.120;2023-12-14T06:41:47;34.47;;;30.34;;
66371;SDS011;53168;51.146;17.120;2023-12-14T06:44:19;33.74;;;29.48;;
66371;SDS011;53168;51.146;17.120;2023-12-14T06:46:49;36.14;;;31.26;;
66371;SDS011;53168;51.146;17.120;2023-12-14T06:49:20;35.99;;;31.14;;
66371;SDS011;53168;51.146;17.120;2023-12-14T06:51:50;34.81;;;30.91;;
66371;SDS011;53168;51.146;17.120;2023-12-14T06:54:20;36.62;;;31.91;;
66371;SDS011;53168;51.146;17.120;2023-12-14T06:56:50;33.88;;;29.58;;
66371;SDS011;53168;51.146;17.120;2023-12-14T06:59:19;34.35;;;30.17;;
66371;SDS011;53168;51.146;17.120;2023-12-14T07:01:49;35.84;;;31.29;;
66371;SDS011;53168;51.146;17.120;2023-12-14T07:04:19;36.07;;;31.37;;
66371;SDS011;53168;51.146;17.120;2023-12-14T07:06:52;34.45;;;29.37;;
66371;SDS011;53168;51.146;17.120;2023-12-14T07:09:21;35.50;;;31.16;;
66371;SDS011;53168;51.146;17.120;2023-12-14T07:11:51;35.37;;;31.12;;
66371;SDS011;53168;51.146;17.120;2023-12-14T07:14:21;37.96;;;32.49;;
66371;SDS011;53168;51.146;17.120;2023-12-14T07:16:53;40.13;;;33.91;;
66371;SDS011;53168;51.146;17.120;2023-12-14T07:19:23;39.80;;;33.96;;
66371;SDS011;53168;51.146;17.120;2023-12-14T07:21:55;39.17;;;33.84;;
66371;SDS011;53168;51.146;17.120;2023-12-14T07:24:25;40.52;;;34.55;;
66371;SDS011;53168;51.146;17.120;2023-12-14T07:26:57;39.54;;;33.74;;
66371;SDS011;53168;51.146;17.120;2023-12-14T07:29:27;40.24;;;33.95;;
66371;SDS011;53168;51.146;17.120;2023-12-14T07:34:42;41.69;;;34.90;;
66371;SDS011;53168;51.146;17.120;2023-12-14T07:37:12;43.44;;;35.41;;
66371;SDS011;53168;51.146;17.120;2023-12-14T07:39:42;40.26;;;33.80;;
66371;SDS011;53168;51.146;17.120;2023-12-14T07:42:12;40.89;;;34.47;;
66371;SDS011;53168;51.146;17.120;2023-12-14T07:44:46;40.09;;;34.20;;
66371;SDS011;53168;51.146;17.120;2023-12-14T07:47:16;38.84;;;33.37;;
66371;SDS011;53168;51.146;17.120;2023-12-14T07:49:46;39.90;;;34.10;;
66371;SDS011;53168;51.146;17.120;2023-12-14T07:52:15;42.39;;;35.90;;
66371;SDS011;53168;51.146;17.120;2023-12-14T07:54:46;39.55;;;33.76;;
66371;SDS011;53168;51.146;17.120;2023-12-14T07:57:16;43.72;;;36.23;;
66371;SDS011;53168;51.146;17.120;2023-12-14T07:59:47;42.57;;;35.87;;
66371;SDS011;53168;51.146;17.120;2023-12-14T08:02:17;41.85;;;35.72;;
66371;SDS011;53168;51.146;17.120;2023-12-14T08:04:46;42.33;;;36.15;;
66371;SDS011;53168;51.146;17.120;2023-12-14T08:07:16;40.66;;;34.76;;
66371;SDS011;53168;51.146;17.120;2023-12-14T08:09:46;39.66;;;33.83;;
66371;SDS011;53168;51.146;17.120;2023-12-14T08:12:15;40.86;;;35.13;;
66371;SDS011;53168;51.146;17.120;2023-12-14T08:14:45;36.94;;;32.30;;
66371;SDS011;53168;51.146;17.120;2023-12-14T08:17:15;38.71;;;33.25;;
66371;SDS011;53168;51.146;17.120;2023-12-14T08:19:45;36.99;;;32.10;;
66371;SDS011;53168;51.146;17.120;2023-12-14T08:22:15;36.19;;;30.93;;
66371;SDS011;53168;51.146;17.120;2023-12-14T08:24:44;35.67;;;30.54;;
66371;SDS011;53168;51.146;17.120;2023-12-14T08:27:14;36.63;;;31.09;;
66371;SDS011;53168;51.146;17.120;2023-12-14T08:29:44;33.31;;;29.27;;
66371;SDS011;53168;51.146;17.120;2023-12-14T08:32:14;35.03;;;30.67;;
66371;SDS011;53168;51.146;17.120;2023-12-14T08:34:44;35.90;;;31.27;;
66371;SDS011;53168;51.146;17.120;2023-12-14T08:37:14;35.56;;;31.19;;
66371;SDS011;53168;51.146;17.120;2023-12-14T08:39:44;37.42;;;32.55;;
66371;SDS011;53168;51.146;17.120;2023-12-14T08:42:14;37.77;;;32.56;;
66371;SDS011;53168;51.146;17.120;2023-12-14T08:44:45;36.81;;;32.15;;
66371;SDS011;53168;51.146;17.120;2023-12-14T08:47:15;35.61;;;31.23;;
66371;SDS011;53168;51.146;17.120;2023-12-14T08:49:45;34.29;;;30.52;;
66371;SDS011;53168;51.146;17.120;2023-12-14T08:52:15;31.39;;;27.59;;
66371;SDS011;53168;51.146;17.120;2023-12-14T08:54:46;32.29;;;28.25;;
66371;SDS011;53168;51.146;17.120;2023-12-14T08:57:16;28.22;;;25.68;;
66371;SDS011;53168;51.146;17.120;2023-12-14T08:59:45;28.59;;;25.48;;
66371;SDS011;53168;51.146;17.120;2023-12-14T09:02:15;28.41;;;25.56;;
66371;SDS011;53168;51.146;17.120;2023-12-14T09:04:45;27.48;;;24.47;;
66371;SDS011;53168;51.146;17.120;2023-12-14T09:07:15;26.67;;;24.26;;
66371;SDS011;53168;51.146;17.120;2023-12-14T09:09:45;25.86;;;23.94;;
66371;SDS011;53168;51.146;17.120;2023-12-14T09:12:15;24.48;;;22.68;;
66371;SDS011;53168;51.146;17.120;2023-12-14T09:14:44;22.40;;;21.11;;
66371;SDS011;53168;51.146;17.120;2023-12-14T09:17:14;22.76;;;21.45;;
66371;SDS011;53168;51.146;17.120;2023-12-14T09:19:46;23.01;;;21.72;;
66371;SDS011;53168;51.146;17.120;2023-12-14T09:22:15;23.15;;;22.02;;
66371;SDS011;53168;51.146;17.120;2023-12-14T09:24:45;24.27;;;22.68;;
66371;SDS011;53168;51.146;17.120;2023-12-14T09:27:14;23.61;;;22.49;;
66371;SDS011;53168;51.146;17.120;2023-12-14T09:29:44;22.28;;;21.01;;
66371;SDS011;53168;51.146;17.120;2023-12-14T09:32:14;22.63;;;21.37;;
66371;SDS011;53168;51.146;17.120;2023-12-14T09:34:44;22.31;;;21.18;;
66371;SDS011;53168;51.146;17.120;2023-12-14T09:37:14;23.36;;;22.22;;
66371;SDS011;53168;51.146;17.120;2023-12-14T09:39:45;23.93;;;22.52;;
66371;SDS011;53168;51.146;17.120;2023-12-14T09:42:16;26.77;;;24.63;;
66371;SDS011;53168;51.146;17.120;2023-12-14T09:44:49;27.04;;;24.98;;
66371;SDS011;53168;51.146;17.120;2023-12-14T09:47:22;27.57;;;25.44;;
66371;SDS011;53168;51.146;17.120;2023-12-14T09:49:52;25.58;;;24.01;;
66371;SDS011;53168;51.146;17.120;2023-12-14T09:52:22;24.77;;;23.14;;
66371;SDS011;53168;51.146;17.120;2023-12-14T09:54:52;24.87;;;23.29;;
66371;SDS011;53168;51.146;17.120;2023-12-14T09:57:23;25.51;;;23.85;;
66371;SDS011;53168;51.146;17.120;2023-12-14T09:59:54;25.68;;;23.99;;
66371;SDS011;53168;51.146;17.120;2023-12-14T10:02:25;25.23;;;23.69;;
66371;SDS011;53168;51.146;17.120;2023-12-14T10:04:56;24.99;;;23.11;;
66371;SDS011;53168;51.146;17.120;2023-12-14T10:07:26;25.62;;;23.87;;
66371;SDS011;53168;51.146;17.120;2023-12-14T10:10:00;26.31;;;24.44;;
66371;SDS011;53168;51.146;17.120;2023-12-14T10:12:51;25.61;;;24.04;;
66371;SDS011;53168;51.146;17.120;2023-12-14T10:15:21;24.33;;;22.91;;
66371;SDS011;53168;51.146;17.120;2023-12-14T10:17:53;22.76;;;21.67;;
66371;SDS011;53168;51.146;17.120;2023-12-14T10:20:25;24.08;;;22.48;;
66371;SDS011;53168;51.146;17.120;2023-12-14T10:22:55;22.57;;;21.38;;
66371;SDS011;53168;51.146;17.120;2023-12-14T10:25:24;23.65;;;22.16;;
66371;SDS011;53168;51.146;17.120;2023-12-14T10:27:55;22.74;;;21.49;;
66371;SDS011;53168;51.146;17.120;2023-12-14T10:30:28;22.41;;;21.35;;
66371;SDS011;53168;51.146;17.120;2023-12-14T10:33:00;21.40;;;20.54;;
66371;SDS011;53168;51.146;17.120;2023-12-14T10:35:31;20.11;;;19.57;;
66371;SDS011;53168;51.146;17.120;2023-12-14T10:38:02;20.08;;;19.48;;
66371;SDS011;53168;51.146;17.120;2023-12-14T10:40:34;21.29;;;20.67;;
66371;SDS011;53168;51.146;17.120;2023-12-14T10:43:08;22.76;;;21.89;;
66371;SDS011;53168;51.146;17.120;2023-12-14T10:45:43;24.10;;;22.60;;
66371;SDS011;53168;51.146;17.120;2023-12-14T10:48:17;24.20;;;23.04;;
66371;SDS011;53168;51.146;17.120;2023-12-14T10:50:48;25.07;;;23.87;;
66371;SDS011;53168;51.146;17.120;2023-12-14T10:53:21;25.36;;;23.77;;
66371;SDS011;53168;51.146;17.120;2023-12-14T10:55:51;22.92;;;21.81;;
66371;SDS011;53168;51.146;17.120;2023-12-14T10:58:26;20.72;;;20.11;;
66371;SDS011;53168;51.146;17.120;2023-12-14T11:01:13;21.60;;;20.63;;
66371;SDS011;53168;51.146;17.120;2023-12-14T11:03:46;21.15;;;20.07;;
66371;SDS011;53168;51.146;17.120;2023-12-14T11:06:30;21.12;;;19.82;;
66371;SDS011;53168;51.146;17.120;2023-12-14T11:09:05;21.67;;;20.45;;
66371;SDS011;53168;51.146;17.120;2023-12-14T11:11:41;21.07;;;20.01;;
66371;SDS011;53168;51.146;17.120;2023-12-14T11:14:24;21.64;;;20.51;;
66371;SDS011;53168;51.146;17.120;2023-12-14T11:16:55;21.30;;;20.00;;
66371;SDS011;53168;51.146;17.120;2023-12-14T11:19:35;21.91;;;20.77;;
66371;SDS011;53168;51.146;17.120;2023-12-14T11:35:47;20.80;;;19.76;;
66371;SDS011;53168;51.146;17.120;2023-12-14T11:38:19;21.67;;;20.64;;
66371;SDS011;53168;51.146;17.120;2023-12-14T11:40:50;23.05;;;21.49;;
66371;SDS011;53168;51.146;17.120;2023-12-14T11:43:20;24.20;;;22.31;;
66371;SDS011;53168;51.146;17.120;2023-12-14T11:45:51;22.70;;;21.17;;
66371;SDS011;53168;51.146;17.120;2023-12-14T11:48:23;24.66;;;22.78;;
66371;SDS011;53168;51.146;17.120;2023-12-14T11:50:53;24.84;;;23.19;;
66371;SDS011;53168;51.146;17.120;2023-12-14T11:53:23;24.33;;;22.14;;
66371;SDS011;53168;51.146;17.120;2023-12-14T11:55:53;22.62;;;21.18;;
66371;SDS011;53168;51.146;17.120;2023-12-14T11:58:24;25.05;;;22.98;;
66371;SDS011;53168;51.146;17.120;2023-12-14T12:00:55;28.13;;;25.96;;
66371;SDS011;53168;51.146;17.120;2023-12-14T12:03:37;25.04;;;23.32;;
66371;SDS011;53168;51.146;17.120;2023-12-14T12:06:08;23.99;;;22.54;;
66371;SDS011;53168;51.146;17.120;2023-12-14T12:08:50;23.53;;;21.96;;
66371;SDS011;53168;51.146;17.120;2023-12-14T12:11:20;23.54;;;22.18;;
66371;SDS011;53168;51.146;17.120;2023-12-14T12:13:55;22.12;;;21.11;;
66371;SDS011;53168;51.146;17.120;2023-12-14T12:16:27;21.61;;;20.49;;
66371;SDS011;53168;51.146;17.120;2023-12-14T12:18:58;21.86;;;20.94;;
66371;SDS011;53168;51.146;17.120;2023-12-14T12:21:28;21.39;;;20.97;;
66371;SDS011;53168;51.146;17.120;2023-12-14T12:23:58;19.94;;;19.51;;
66371;SDS011;53168;51.146;17.120;2023-12-14T12:26:28;19.71;;;18.94;;
66371;SDS011;53168;51.146;17.120;2023-12-14T12:28:58;18.98;;;17.92;;
66371;SDS011;53168;51.146;17.120;2023-12-14T12:31:30;20.69;;;19.89;;
66371;SDS011;53168;51.146;17.120;2023-12-14T12:34:00;20.98;;;19.97;;
66371;SDS011;53168;51.146;17.120;2023-12-14T12:36:30;23.81;;;21.95;;
66371;SDS011;53168;51.146;17.120;2023-12-14T12:39:00;21.84;;;20.59;;
66371;SDS011;53168;51.146;17.120;2023-12-14T12:41:30;21.86;;;20.77;;
66371;SDS011;53168;51.146;17.120;2023-12-14T12:44:00;23.92;;;22.62;;
66371;SDS011;53168;51.146;17.120;2023-12-14T12:46:33;26.59;;;24.59;;
66371;SDS011;53168;51.146;17.120;2023-12-14T12:49:03;25.77;;;23.96;;
66371;SDS011;53168;51.146;17.120;2023-12-14T12:51:36;27.84;;;25.51;;
66371;SDS011;53168;51.146;17.120;2023-12-14T12:54:08;32.04;;;29.70;;
66371;SDS011;53168;51.146;17.120;2023-12-14T12:56:40;29.88;;;27.16;;
66371;SDS011;53168;51.146;17.120;2023-12-14T12:59:10;26.57;;;24.57;;
66371;SDS011;53168;51.146;17.120;2023-12-14T13:01:44;26.37;;;24.81;;
66371;SDS011;53168;51.146;17.120;2023-12-14T13:04:20;25.86;;;24.13;;
66371;SDS011;53168;51.146;17.120;2023-12-14T13:06:51;26.79;;;25.30;;
66371;SDS011;53168;51.146;17.120;2023-12-14T13:09:20;26.89;;;25.36;;
66371;SDS011;53168;51.146;17.120;2023-12-14T13:11:50;23.71;;;22.52;;
66371;SDS011;53168;51.146;17.120;2023-12-14T13:14:20;23.76;;;22.50;;
66371;SDS011;53168;51.146;17.120;2023-12-14T13:16:49;26.40;;;24.97;;
66371;SDS011;53168;51.146;17.120;2023-12-14T13:19:19;29.04;;;27.28;;
66371;SDS011;53168;51.146;17.120;2023-12-14T13:21:50;24.45;;;23.27;;
66371;SDS011;53168;51.146;17.120;2023-12-14T13:24:20;24.16;;;22.68;;
66371;SDS011;53168;51.146;17.120;2023-12-14T13:26:50;22.73;;;21.13;;
66371;SDS011;53168;51.146;17.120;2023-12-14T13:29:20;21.52;;;20.35;;
66371;SDS011;53168;51.146;17.120;2023-12-14T13:31:50;24.49;;;23.14;;
66371;SDS011;53168;51.146;17.120;2023-12-14T13:34:19;22.86;;;21.79;;
66371;SDS011;53168;51.146;17.120;2023-12-14T13:39:30;23.93;;;22.03;;
66371;SDS011;53168;51.146;17.120;2023-12-14T13:42:02;22.00;;;20.55;;
66371;SDS011;53168;51.146;17.120;2023-12-14T13:44:33;23.42;;;21.62;;
66371;SDS011;53168;51.146;17.120;2023-12-14T13:47:04;22.93;;;20.91;;
66371;SDS011;53168;51.146;17.120;2023-12-14T13:49:34;23.84;;;22.07;;
66371;SDS011;53168;51.146;17.120;2023-12-14T14:15:08;25.96;;;22.99;;
66371;SDS011;53168;51.146;17.120;2023-12-14T14:17:43;25.53;;;23.05;;
66371;SDS011;53168;51.146;17.120;2023-12-14T14:20:22;25.60;;;23.10;;
66371;SDS011;53168;51.146;17.120;2023-12-14T14:22:57;26.27;;;23.64;;
66371;SDS011;53168;51.146;17.120;2023-12-14T14:25:31;26.92;;;23.73;;
66371;SDS011;53168;51.146;17.120;2023-12-14T14:28:05;26.41;;;24.07;;
66371;SDS011;53168;51.146;17.120;2023-12-14T14:30:39;26.21;;;23.81;;
66371;SDS011;53168;51.146;17.120;2023-12-14T14:33:16;25.63;;;23.45;;
66371;SDS011;53168;51.146;17.120;2023-12-14T14:35:50;26.83;;;24.33;;
66371;SDS011;53168;51.146;17.120;2023-12-14T14:38:24;26.17;;;23.40;;
66371;SDS011;53168;51.146;17.120;2023-12-14T14:40:58;26.70;;;24.07;;
66371;SDS011;53168;51.146;17.120;2023-12-14T14:43:32;26.74;;;24.08;;
66371;SDS011;53168;51.146;17.120;2023-12-14T14:46:07;26.28;;;23.66;;
66371;SDS011;53168;51.146;17.120;2023-12-14T14:48:41;26.29;;;24.27;;
66371;SDS011;53168;51.146;17.120;2023-12-14T14:51:16;25.78;;;22.91;;
66371;SDS011;53168;51.146;17.120;2023-12-14T14:53:49;25.38;;;22.36;;
66371;SDS011;53168;51.146;17.120;2023-12-14T14:56:23;25.82;;;23.04;;
66371;SDS011;53168;51.146;17.120;2023-12-14T14:58:58;22.98;;;21.01;;
66371;SDS011;53168;51.146;17.120;2023-12-14T15:01:34;24.88;;;22.14;;
66371;SDS011;53168;51.146;17.120;2023-12-14T15:04:09;25.48;;;22.98;;
66371;SDS011;53168;51.146;17.120;2023-12-14T15:06:43;26.75;;;23.31;;
66371;SDS011;53168;51.146;17.120;2023-12-14T15:09:18;25.59;;;22.24;;
66371;SDS011;53168;51.146;17.120;2023-12-14T15:11:52;25.42;;;22.58;;
66371;SDS011;53168;51.146;17.120;2023-12-14T15:14:27;24.02;;;21.28;;
66371;SDS011;53168;51.146;17.120;2023-12-14T15:17:03;22.92;;;20.73;;
66371;SDS011;53168;51.146;17.120;2023-12-14T15:19:38;24.49;;;21.54;;
66371;SDS011;53168;51.146;17.120;2023-12-14T15:22:15;23.36;;;20.97;;
66371;SDS011;53168;51.146;17.120;2023-12-14T15:24:49;22.75;;;20.70;;
66371;SDS011;53168;51.146;17.120;2023-12-14T15:27:24;22.74;;;20.30;;
66371;SDS011;53168;51.146;17.120;2023-12-14T15:30:00;23.59;;;21.37;;
66371;SDS011;53168;51.146;17.120;2023-12-14T15:32:36;24.49;;;21.69;;
66371;SDS011;53168;51.146;17.120;2023-12-14T15:35:11;26.43;;;23.21;;
66371;SDS011;53168;51.146;17.120;2023-12-14T15:37:46;24.19;;;21.74;;
66371;SDS011;53168;51.146;17.120;2023-12-14T15:40:21;24.31;;;21.40;;
66371;SDS011;53168;51.146;17.120;2023-12-14T15:42:55;24.32;;;21.77;;
66371;SDS011;53168;51.146;17.120;2023-12-14T15:45:30;22.02;;;20.27;;
66371;SDS011;53168;51.146;17.120;2023-12-14T15:48:04;23.00;;;21.08;;
66371;SDS011;53168;51.146;17.120;2023-12-14T15:50:41;22.11;;;20.52;;
66371;SDS011;53168;51.146;17.120;2023-12-14T15:53:16;24.02;;;22.06;;
66371;SDS011;53168;51.146;17.120;2023-12-14T15:55:50;24.55;;;22.03;;
66371;SDS011;53168;51.146;17.120;2023-12-14T15:58:24;23.63;;;21.32;;
66371;SDS011;53168;51.146;17.120;2023-12-14T16:00:59;22.65;;;21.04;;
66371;SDS011;53168;51.146;17.120;2023-12-14T16:03:33;20.36;;;18.98;;
66371;SDS011;53168;51.146;17.120;2023-12-14T16:06:07;21.47;;;19.79;;
66371;SDS011;53168;51.146;17.120;2023-12-14T16:08:42;20.25;;;19.05;;
66371;SDS011;53168;51.146;17.120;2023-12-14T16:11:16;19.84;;;18.60;;
66371;SDS011;53168;51.146;17.120;2023-12-14T16:13:50;18.30;;;17.39;;
66371;SDS011;53168;51.146;17.120;2023-12-14T16:16:26;18.15;;;17.33;;
66371;SDS011;53168;51.146;17.120;2023-12-14T16:19:00;17.81;;;16.86;;
66371;SDS011;53168;51.146;17.120;2023-12-14T16:21:35;19.40;;;18.35;;
66371;SDS011;53168;51.146;17.120;2023-12-14T16:24:09;18.80;;;17.81;;
66371;SDS011;53168;51.146;17.120;2023-12-14T16:26:43;19.22;;;18.07;;
66371;SDS011;53168;51.146;17.120;2023-12-14T16:29:28;19.78;;;18.34;;
66371;SDS011;53168;51.146;17.120;2023-12-14T16:32:06;21.15;;;19.79;;
66371;SDS011;53168;51.146;17.120;2023-12-14T16:34:40;20.72;;;19.50;;
66371;SDS011;53168;51.146;17.120;2023-12-14T16:37:14;23.29;;;21.32;;
66371;SDS011;53168;51.146;17.120;2023-12-14T16:39:48;24.77;;;22.49;;
66371;SDS011;53168;51.146;17.120;2023-12-14T16:42:22;26.84;;;24.37;;
66371;SDS011;53168;51.146;17.120;2023-12-14T16:45:09;28.58;;;25.60;;
66371;SDS011;53168;51.146;17.120;2023-12-14T16:47:43;30.16;;;27.25;;
66371;SDS011;53168;51.146;17.120;2023-12-14T16:50:17;29.83;;;26.66;;
66371;SDS011;53168;51.146;17.120;2023-12-14T16:52:51;30.84;;;27.48;;
66371;SDS011;53168;51.146;17.120;2023-12-14T16:55:27;31.41;;;27.72;;
66371;SDS011;53168;51.146;17.120;2023-12-14T16:58:01;33.94;;;29.34;;
66371;SDS011;53168;51.146;17.120;2023-12-14T17:00:35;34.01;;;30.04;;
66371;SDS011;53168;51.146;17.120;2023-12-14T17:03:10;37.17;;;32.01;;
66371;SDS011;53168;51.146;17.120;2023-12-14T17:05:45;40.51;;;33.92;;
66371;SDS011;53168;51.146;17.120;2023-12-14T17:08:26;40.75;;;34.63;;
66371;SDS011;53168;51.146;17.120;2023-12-14T17:11:01;40.29;;;34.37;;
66371;SDS011;53168;51.146;17.120;2023-12-14T18:47:17;32.99;;;29.80;;
66371;SDS011;53168;51.146;17.120;2023-12-14T18:49:51;34.33;;;31.34;;
66371;SDS011;53168;51.146;17.120;2023-12-14T18:52:26;31.67;;;28.68;;